METAR AND TAF INFORMATION
METAR FOR MWCR
ADDS - METARS form results

(0414 UTC 27 November 2022)
Data provider http://aviationweather.gov/metar/data/
 
Forecast for: MWCR (GRAND CAYMAN/OWN, KY)
Text: TAF MWCR 262300Z 2700/2724 08010KT 9999 SCT018
Forecast period: 0000 UTC 27 November 2022 to 0000 UTC 28 November 2022
Forecast type: FROM: standard forecast or significant change
Winds: from the E (80 degrees) at 12 MPH (10 knots; 5.1 m/s)
Visibility: 6 or more miles (10+ km)
Ceiling: at least 12,000 feet AGL
Clouds: scattered clouds at 1800 feet AGL
Weather: no significant weather forecast for this period

 AIRPORT MAP

 RUNWAY INFORMATION
Runway 08 Runway length 7021 ft Runway width 148 ft
Runway elevation 8 ft Runway displaced threshold 0 ft Runway heading 76
Runway 26 Runway length 7021 ft Runway width 148 ft
Runway elevation 6 ft Runway displaced threshold 400 ft Runway heading 256

 AIRPORT FREQUENCIES
Type A/D Name GRAND CAYM Frequency 120.2 MHZ
Type ATIS Name ATIS Frequency 132.35 MHZ
Type CNTR Name KINGSTON C Frequency 128.1 MHZ
Type GND Name GND Frequency 121.9 MHZ
Type TWR Name TWR Frequency 118 MHZ

 AIRPORT NEAR NAVIGATION AIDS
Type VOR-DME Name Grand Cayman Frequency 115600 KHZ
Type NDB Name Grand Cayman Frequency 344 KHZ



Powered by Virtual Airlines Manager [v2.6.2]